sensor_id;sensor_type;location;lat;lon;timestamp;P1;durP1;ratioP1;P2;durP2;ratioP2
438;SDS011;206;48.782;9.252;2023-03-03T00:01:08;50.13;;;29.13;;
438;SDS011;206;48.782;9.252;2023-03-03T00:03:34;45.50;;;25.47;;
438;SDS011;206;48.782;9.252;2023-03-03T00:06:01;32.97;;;23.10;;
438;SDS011;206;48.782;9.252;2023-03-03T00:08:28;35.37;;;24.50;;
438;SDS011;206;48.782;9.252;2023-03-03T00:10:54;40.03;;;25.50;;
438;SDS011;206;48.782;9.252;2023-03-03T00:13:20;36.03;;;24.80;;
438;SDS011;206;48.782;9.252;2023-03-03T00:15:48;41.40;;;25.40;;
438;SDS011;206;48.782;9.252;2023-03-03T00:18:34;40.67;;;25.03;;
438;SDS011;206;48.782;9.252;2023-03-03T00:21:07;35.77;;;25.70;;
438;SDS011;206;48.782;9.252;2023-03-03T00:23:47;34.10;;;25.20;;
438;SDS011;206;48.782;9.252;2023-03-03T00:26:15;43.70;;;24.40;;
438;SDS011;206;48.782;9.252;2023-03-03T00:28:46;37.27;;;26.67;;
438;SDS011;206;48.782;9.252;2023-03-03T00:31:20;52.70;;;28.10;;
438;SDS011;206;48.782;9.252;2023-03-03T00:33:53;37.17;;;26.23;;
438;SDS011;206;48.782;9.252;2023-03-03T00:36:30;37.93;;;24.90;;
438;SDS011;206;48.782;9.252;2023-03-03T00:39:46;49.50;;;29.00;;
438;SDS011;206;48.782;9.252;2023-03-03T00:42:01;33.70;;;24.03;;
438;SDS011;206;48.782;9.252;2023-03-03T00:44:37;42.20;;;26.60;;
438;SDS011;206;48.782;9.252;2023-03-03T00:47:28;36.33;;;24.10;;
438;SDS011;206;48.782;9.252;2023-03-03T00:50:42;39.43;;;24.53;;
438;SDS011;206;48.782;9.252;2023-03-03T00:52:52;41.23;;;26.53;;
438;SDS011;206;48.782;9.252;2023-03-03T00:55:25;37.40;;;25.60;;
438;SDS011;206;48.782;9.252;2023-03-03T00:57:51;35.40;;;24.17;;
438;SDS011;206;48.782;9.252;2023-03-03T01:00:17;40.67;;;26.27;;
438;SDS011;206;48.782;9.252;2023-03-03T01:02:43;43.83;;;27.50;;
438;SDS011;206;48.782;9.252;2023-03-03T01:05:11;42.90;;;26.40;;
438;SDS011;206;48.782;9.252;2023-03-03T01:07:38;41.50;;;25.70;;
438;SDS011;206;48.782;9.252;2023-03-03T01:10:03;57.70;;;28.13;;
438;SDS011;206;48.782;9.252;2023-03-03T01:12:29;42.87;;;26.40;;
438;SDS011;206;48.782;9.252;2023-03-03T01:14:55;44.67;;;27.67;;
438;SDS011;206;48.782;9.252;2023-03-03T01:17:21;40.70;;;25.83;;
438;SDS011;206;48.782;9.252;2023-03-03T01:19:46;39.53;;;25.70;;
438;SDS011;206;48.782;9.252;2023-03-03T01:22:12;43.93;;;26.43;;
438;SDS011;206;48.782;9.252;2023-03-03T01:24:37;39.60;;;25.90;;
438;SDS011;206;48.782;9.252;2023-03-03T01:27:03;42.67;;;27.53;;
438;SDS011;206;48.782;9.252;2023-03-03T01:29:29;37.70;;;27.30;;
438;SDS011;206;48.782;9.252;2023-03-03T01:31:54;50.67;;;30.13;;
438;SDS011;206;48.782;9.252;2023-03-03T01:34:20;45.73;;;27.60;;
438;SDS011;206;48.782;9.252;2023-03-03T01:36:45;35.33;;;26.07;;
438;SDS011;206;48.782;9.252;2023-03-03T01:39:11;40.83;;;25.40;;
438;SDS011;206;48.782;9.252;2023-03-03T01:41:37;47.57;;;28.07;;
438;SDS011;206;48.782;9.252;2023-03-03T01:44:03;39.30;;;26.40;;
438;SDS011;206;48.782;9.252;2023-03-03T01:51:51;38.30;;;25.13;;
438;SDS011;206;48.782;9.252;2023-03-03T01:54:22;45.20;;;28.47;;
438;SDS011;206;48.782;9.252;2023-03-03T01:56:56;47.53;;;27.83;;
438;SDS011;206;48.782;9.252;2023-03-03T01:59:26;45.07;;;27.90;;
438;SDS011;206;48.782;9.252;2023-03-03T02:01:57;42.37;;;28.23;;
438;SDS011;206;48.782;9.252;2023-03-03T02:04:23;42.93;;;27.17;;
438;SDS011;206;48.782;9.252;2023-03-03T02:06:51;43.30;;;27.30;;
438;SDS011;206;48.782;9.252;2023-03-03T02:12:19;33.53;;;23.40;;
438;SDS011;206;48.782;9.252;2023-03-03T02:14:50;44.70;;;27.93;;
438;SDS011;206;48.782;9.252;2023-03-03T02:17:15;46.30;;;27.63;;
438;SDS011;206;48.782;9.252;2023-03-03T02:22:23;49.70;;;27.53;;
438;SDS011;206;48.782;9.252;2023-03-03T02:24:58;47.33;;;28.00;;
438;SDS011;206;48.782;9.252;2023-03-03T02:27:27;49.67;;;29.30;;
438;SDS011;206;48.782;9.252;2023-03-03T02:29:55;43.13;;;26.77;;
438;SDS011;206;48.782;9.252;2023-03-03T02:32:21;47.07;;;28.87;;
438;SDS011;206;48.782;9.252;2023-03-03T02:34:48;36.70;;;25.03;;
438;SDS011;206;48.782;9.252;2023-03-03T02:37:15;42.37;;;28.60;;
438;SDS011;206;48.782;9.252;2023-03-03T02:39:41;45.80;;;28.50;;
438;SDS011;206;48.782;9.252;2023-03-03T02:42:08;49.37;;;28.73;;
438;SDS011;206;48.782;9.252;2023-03-03T02:44:49;46.67;;;30.57;;
438;SDS011;206;48.782;9.252;2023-03-03T02:47:15;43.83;;;28.10;;
438;SDS011;206;48.782;9.252;2023-03-03T02:49:40;37.70;;;26.73;;
438;SDS011;206;48.782;9.252;2023-03-03T02:52:08;39.67;;;25.70;;
438;SDS011;206;48.782;9.252;2023-03-03T02:54:34;44.80;;;26.97;;
438;SDS011;206;48.782;9.252;2023-03-03T02:57:01;41.87;;;26.97;;
438;SDS011;206;48.782;9.252;2023-03-03T02:59:27;54.50;;;28.00;;
438;SDS011;206;48.782;9.252;2023-03-03T03:01:53;41.67;;;27.77;;
438;SDS011;206;48.782;9.252;2023-03-03T03:04:20;45.43;;;26.20;;
438;SDS011;206;48.782;9.252;2023-03-03T03:06:47;46.20;;;27.13;;
438;SDS011;206;48.782;9.252;2023-03-03T03:09:13;46.20;;;28.30;;
438;SDS011;206;48.782;9.252;2023-03-03T03:11:40;39.00;;;25.33;;
438;SDS011;206;48.782;9.252;2023-03-03T03:14:07;43.87;;;27.60;;
438;SDS011;206;48.782;9.252;2023-03-03T03:16:34;41.37;;;27.87;;
438;SDS011;206;48.782;9.252;2023-03-03T03:19:00;42.07;;;26.87;;
438;SDS011;206;48.782;9.252;2023-03-03T03:21:27;46.50;;;29.17;;
438;SDS011;206;48.782;9.252;2023-03-03T03:23:53;49.10;;;30.83;;
438;SDS011;206;48.782;9.252;2023-03-03T03:26:18;46.63;;;29.40;;
438;SDS011;206;48.782;9.252;2023-03-03T03:28:45;38.90;;;26.87;;
438;SDS011;206;48.782;9.252;2023-03-03T03:31:11;50.17;;;29.97;;
438;SDS011;206;48.782;9.252;2023-03-03T03:33:37;46.90;;;30.80;;
438;SDS011;206;48.782;9.252;2023-03-03T03:36:03;50.20;;;31.37;;
438;SDS011;206;48.782;9.252;2023-03-03T03:38:31;45.30;;;29.27;;
438;SDS011;206;48.782;9.252;2023-03-03T03:40:57;41.40;;;26.50;;
438;SDS011;206;48.782;9.252;2023-03-03T03:43:23;42.43;;;28.37;;
438;SDS011;206;48.782;9.252;2023-03-03T03:45:49;52.33;;;30.90;;
438;SDS011;206;48.782;9.252;2023-03-03T03:48:15;47.77;;;28.00;;
438;SDS011;206;48.782;9.252;2023-03-03T03:50:41;45.20;;;28.37;;
438;SDS011;206;48.782;9.252;2023-03-03T03:53:07;46.40;;;30.67;;
438;SDS011;206;48.782;9.252;2023-03-03T03:55:32;44.77;;;26.57;;
438;SDS011;206;48.782;9.252;2023-03-03T03:57:58;51.90;;;29.70;;
438;SDS011;206;48.782;9.252;2023-03-03T04:00:24;44.73;;;27.30;;
438;SDS011;206;48.782;9.252;2023-03-03T04:02:50;50.30;;;31.43;;
438;SDS011;206;48.782;9.252;2023-03-03T04:05:16;41.93;;;28.13;;
438;SDS011;206;48.782;9.252;2023-03-03T04:07:42;45.93;;;28.40;;
438;SDS011;206;48.782;9.252;2023-03-03T04:10:08;48.90;;;28.80;;
438;SDS011;206;48.782;9.252;2023-03-03T04:12:34;45.77;;;31.33;;
438;SDS011;206;48.782;9.252;2023-03-03T04:15:04;44.10;;;28.93;;
438;SDS011;206;48.782;9.252;2023-03-03T04:17:30;49.77;;;28.47;;
438;SDS011;206;48.782;9.252;2023-03-03T04:19:56;51.67;;;28.87;;
438;SDS011;206;48.782;9.252;2023-03-03T04:22:21;43.27;;;29.20;;
438;SDS011;206;48.782;9.252;2023-03-03T04:24:47;48.47;;;30.80;;
438;SDS011;206;48.782;9.252;2023-03-03T04:27:13;49.50;;;28.77;;
438;SDS011;206;48.782;9.252;2023-03-03T04:29:39;52.67;;;31.10;;
438;SDS011;206;48.782;9.252;2023-03-03T04:32:06;50.57;;;27.63;;
438;SDS011;206;48.782;9.252;2023-03-03T04:34:31;49.30;;;28.30;;
438;SDS011;206;48.782;9.252;2023-03-03T04:36:57;45.80;;;27.07;;
438;SDS011;206;48.782;9.252;2023-03-03T04:39:23;46.90;;;30.70;;
438;SDS011;206;48.782;9.252;2023-03-03T04:41:48;49.40;;;32.97;;
438;SDS011;206;48.782;9.252;2023-03-03T04:44:15;47.80;;;29.27;;
438;SDS011;206;48.782;9.252;2023-03-03T04:46:41;49.60;;;30.27;;
438;SDS011;206;48.782;9.252;2023-03-03T04:49:06;51.47;;;29.57;;
438;SDS011;206;48.782;9.252;2023-03-03T04:51:33;39.93;;;29.40;;
438;SDS011;206;48.782;9.252;2023-03-03T04:53:58;47.00;;;27.57;;
438;SDS011;206;48.782;9.252;2023-03-03T04:56:24;43.90;;;28.97;;
438;SDS011;206;48.782;9.252;2023-03-03T04:58:50;58.43;;;31.67;;
438;SDS011;206;48.782;9.252;2023-03-03T05:01:16;45.30;;;28.40;;
438;SDS011;206;48.782;9.252;2023-03-03T05:03:43;46.00;;;26.83;;
438;SDS011;206;48.782;9.252;2023-03-03T05:06:09;48.10;;;30.80;;
438;SDS011;206;48.782;9.252;2023-03-03T05:08:35;46.73;;;32.67;;
438;SDS011;206;48.782;9.252;2023-03-03T05:11:01;41.97;;;28.50;;
438;SDS011;206;48.782;9.252;2023-03-03T05:13:27;48.37;;;29.57;;
438;SDS011;206;48.782;9.252;2023-03-03T05:15:54;45.67;;;29.37;;
438;SDS011;206;48.782;9.252;2023-03-03T05:18:23;49.30;;;30.03;;
438;SDS011;206;48.782;9.252;2023-03-03T05:20:50;47.00;;;29.63;;
438;SDS011;206;48.782;9.252;2023-03-03T05:23:16;49.10;;;29.70;;
438;SDS011;206;48.782;9.252;2023-03-03T05:25:42;45.63;;;27.70;;
438;SDS011;206;48.782;9.252;2023-03-03T05:28:09;40.70;;;28.17;;
438;SDS011;206;48.782;9.252;2023-03-03T05:30:35;51.13;;;32.10;;
438;SDS011;206;48.782;9.252;2023-03-03T05:33:02;46.33;;;29.63;;
438;SDS011;206;48.782;9.252;2023-03-03T05:35:28;47.60;;;31.10;;
438;SDS011;206;48.782;9.252;2023-03-03T05:37:54;43.83;;;29.03;;
438;SDS011;206;48.782;9.252;2023-03-03T05:40:22;47.63;;;28.67;;
438;SDS011;206;48.782;9.252;2023-03-03T05:42:48;47.03;;;29.80;;
438;SDS011;206;48.782;9.252;2023-03-03T05:45:14;52.63;;;29.13;;
438;SDS011;206;48.782;9.252;2023-03-03T05:47:40;51.30;;;31.10;;
438;SDS011;206;48.782;9.252;2023-03-03T05:50:05;43.60;;;28.40;;
438;SDS011;206;48.782;9.252;2023-03-03T05:52:31;39.50;;;28.10;;
438;SDS011;206;48.782;9.252;2023-03-03T05:54:57;46.90;;;29.23;;
438;SDS011;206;48.782;9.252;2023-03-03T05:57:22;46.83;;;28.63;;
438;SDS011;206;48.782;9.252;2023-03-03T05:59:48;41.13;;;29.67;;
438;SDS011;206;48.782;9.252;2023-03-03T06:02:14;42.03;;;28.77;;
438;SDS011;206;48.782;9.252;2023-03-03T06:04:39;38.93;;;25.93;;
438;SDS011;206;48.782;9.252;2023-03-03T06:07:05;48.07;;;28.17;;
438;SDS011;206;48.782;9.252;2023-03-03T06:09:31;47.47;;;28.00;;
438;SDS011;206;48.782;9.252;2023-03-03T06:11:57;43.60;;;26.67;;
438;SDS011;206;48.782;9.252;2023-03-03T06:14:23;39.30;;;24.73;;
438;SDS011;206;48.782;9.252;2023-03-03T06:16:49;39.20;;;27.37;;
438;SDS011;206;48.782;9.252;2023-03-03T06:19:15;39.60;;;27.13;;
438;SDS011;206;48.782;9.252;2023-03-03T06:21:41;38.80;;;27.50;;
438;SDS011;206;48.782;9.252;2023-03-03T06:24:06;49.13;;;30.60;;
438;SDS011;206;48.782;9.252;2023-03-03T06:26:32;49.93;;;29.43;;
438;SDS011;206;48.782;9.252;2023-03-03T06:28:59;59.17;;;30.70;;
438;SDS011;206;48.782;9.252;2023-03-03T06:31:25;49.40;;;30.43;;
438;SDS011;206;48.782;9.252;2023-03-03T06:33:52;40.37;;;27.47;;
438;SDS011;206;48.782;9.252;2023-03-03T06:36:18;47.90;;;28.03;;
438;SDS011;206;48.782;9.252;2023-03-03T06:38:44;38.57;;;25.80;;
438;SDS011;206;48.782;9.252;2023-03-03T06:41:10;41.20;;;25.90;;
438;SDS011;206;48.782;9.252;2023-03-03T06:43:36;37.37;;;26.37;;
438;SDS011;206;48.782;9.252;2023-03-03T06:46:02;42.93;;;28.07;;
438;SDS011;206;48.782;9.252;2023-03-03T06:48:31;43.43;;;25.77;;
438;SDS011;206;48.782;9.252;2023-03-03T06:50:58;35.17;;;24.80;;
438;SDS011;206;48.782;9.252;2023-03-03T06:53:25;44.77;;;28.57;;
438;SDS011;206;48.782;9.252;2023-03-03T06:55:51;39.90;;;26.33;;
438;SDS011;206;48.782;9.252;2023-03-03T06:58:21;43.97;;;27.70;;
438;SDS011;206;48.782;9.252;2023-03-03T07:00:56;40.87;;;25.37;;
438;SDS011;206;48.782;9.252;2023-03-03T07:03:24;41.43;;;25.67;;
438;SDS011;206;48.782;9.252;2023-03-03T07:05:53;40.13;;;25.87;;
438;SDS011;206;48.782;9.252;2023-03-03T07:08:20;43.33;;;27.20;;
438;SDS011;206;48.782;9.252;2023-03-03T07:10:48;36.20;;;24.00;;
438;SDS011;206;48.782;9.252;2023-03-03T07:13:27;34.70;;;25.20;;
438;SDS011;206;48.782;9.252;2023-03-03T07:15:58;43.33;;;25.73;;
438;SDS011;206;48.782;9.252;2023-03-03T07:21:27;34.97;;;23.20;;
438;SDS011;206;48.782;9.252;2023-03-03T07:24:00;33.83;;;23.53;;
438;SDS011;206;48.782;9.252;2023-03-03T07:26:39;32.73;;;22.00;;
438;SDS011;206;48.782;9.252;2023-03-03T07:29:15;37.73;;;24.77;;
438;SDS011;206;48.782;9.252;2023-03-03T07:31:48;32.03;;;22.57;;
438;SDS011;206;48.782;9.252;2023-03-03T07:34:22;39.97;;;24.23;;
438;SDS011;206;48.782;9.252;2023-03-03T07:36:57;38.70;;;22.80;;
438;SDS011;206;48.782;9.252;2023-03-03T07:39:34;29.70;;;20.07;;
438;SDS011;206;48.782;9.252;2023-03-03T07:44:43;35.30;;;23.37;;
438;SDS011;206;48.782;9.252;2023-03-03T07:47:18;30.87;;;22.10;;
438;SDS011;206;48.782;9.252;2023-03-03T07:49:46;33.40;;;21.63;;
438;SDS011;206;48.782;9.252;2023-03-03T07:54:45;34.87;;;22.07;;
438;SDS011;206;48.782;9.252;2023-03-03T07:59:37;33.07;;;22.93;;
438;SDS011;206;48.782;9.252;2023-03-03T08:02:30;37.67;;;21.93;;
438;SDS011;206;48.782;9.252;2023-03-03T08:04:58;34.93;;;21.80;;
438;SDS011;206;48.782;9.252;2023-03-03T08:07:23;27.60;;;21.10;;
438;SDS011;206;48.782;9.252;2023-03-03T08:12:27;31.93;;;20.60;;
438;SDS011;206;48.782;9.252;2023-03-03T08:17:53;39.87;;;22.47;;
438;SDS011;206;48.782;9.252;2023-03-03T08:23:11;31.17;;;22.43;;
438;SDS011;206;48.782;9.252;2023-03-03T08:25:38;36.83;;;23.47;;
438;SDS011;206;48.782;9.252;2023-03-03T08:28:06;35.20;;;22.80;;
438;SDS011;206;48.782;9.252;2023-03-03T08:30:32;30.17;;;21.07;;
438;SDS011;206;48.782;9.252;2023-03-03T08:32:58;33.10;;;23.40;;
438;SDS011;206;48.782;9.252;2023-03-03T08:35:24;31.20;;;22.10;;
438;SDS011;206;48.782;9.252;2023-03-03T08:37:50;33.60;;;23.40;;
438;SDS011;206;48.782;9.252;2023-03-03T08:40:16;31.63;;;20.73;;
438;SDS011;206;48.782;9.252;2023-03-03T08:42:41;32.93;;;22.40;;
438;SDS011;206;48.782;9.252;2023-03-03T08:45:07;30.50;;;22.37;;
438;SDS011;206;48.782;9.252;2023-03-03T08:47:33;33.97;;;22.87;;
438;SDS011;206;48.782;9.252;2023-03-03T08:49:58;27.97;;;20.70;;
438;SDS011;206;48.782;9.252;2023-03-03T08:52:24;29.27;;;20.77;;
438;SDS011;206;48.782;9.252;2023-03-03T08:54:50;33.53;;;20.10;;
438;SDS011;206;48.782;9.252;2023-03-03T08:57:16;30.57;;;20.80;;
438;SDS011;206;48.782;9.252;2023-03-03T08:59:42;32.40;;;23.13;;
438;SDS011;206;48.782;9.252;2023-03-03T09:02:08;33.10;;;21.60;;
438;SDS011;206;48.782;9.252;2023-03-03T09:04:34;26.63;;;21.60;;
438;SDS011;206;48.782;9.252;2023-03-03T09:06:59;34.97;;;21.60;;
438;SDS011;206;48.782;9.252;2023-03-03T09:09:25;37.53;;;21.67;;
438;SDS011;206;48.782;9.252;2023-03-03T09:11:58;30.43;;;20.13;;
438;SDS011;206;48.782;9.252;2023-03-03T09:14:27;30.17;;;22.53;;
438;SDS011;206;48.782;9.252;2023-03-03T09:16:54;27.90;;;20.20;;
438;SDS011;206;48.782;9.252;2023-03-03T09:19:31;27.87;;;19.87;;
438;SDS011;206;48.782;9.252;2023-03-03T09:24:45;34.60;;;22.83;;
438;SDS011;206;48.782;9.252;2023-03-03T09:27:14;34.23;;;22.17;;
438;SDS011;206;48.782;9.252;2023-03-03T09:29:46;28.40;;;20.50;;
438;SDS011;206;48.782;9.252;2023-03-03T09:34:41;36.40;;;24.07;;
438;SDS011;206;48.782;9.252;2023-03-03T09:37:26;33.23;;;23.03;;
438;SDS011;206;48.782;9.252;2023-03-03T09:39:57;28.90;;;21.37;;
438;SDS011;206;48.782;9.252;2023-03-03T09:42:26;33.50;;;22.20;;
438;SDS011;206;48.782;9.252;2023-03-03T09:45:19;31.47;;;22.77;;
438;SDS011;206;48.782;9.252;2023-03-03T09:56:08;29.27;;;20.70;;
438;SDS011;206;48.782;9.252;2023-03-03T10:04:10;31.47;;;23.23;;
438;SDS011;206;48.782;9.252;2023-03-03T10:06:46;34.20;;;22.90;;
438;SDS011;206;48.782;9.252;2023-03-03T10:12:32;44.40;;;24.57;;
438;SDS011;206;48.782;9.252;2023-03-03T10:29:24;36.10;;;25.30;;
438;SDS011;206;48.782;9.252;2023-03-03T10:35:12;35.17;;;24.13;;
438;SDS011;206;48.782;9.252;2023-03-03T11:01:52;34.40;;;24.10;;
438;SDS011;206;48.782;9.252;2023-03-03T11:04:46;35.20;;;25.93;;
438;SDS011;206;48.782;9.252;2023-03-03T11:07:28;36.17;;;22.80;;
438;SDS011;206;48.782;9.252;2023-03-03T11:22:10;33.40;;;24.80;;
438;SDS011;206;48.782;9.252;2023-03-03T11:24:40;36.67;;;23.40;;
438;SDS011;206;48.782;9.252;2023-03-03T11:33:02;30.60;;;22.07;;
438;SDS011;206;48.782;9.252;2023-03-03T11:35:44;35.80;;;21.50;;
438;SDS011;206;48.782;9.252;2023-03-03T11:49:50;37.43;;;22.90;;
438;SDS011;206;48.782;9.252;2023-03-03T11:55:23;32.90;;;22.53;;
438;SDS011;206;48.782;9.252;2023-03-03T12:00:30;31.73;;;24.00;;
438;SDS011;206;48.782;9.252;2023-03-03T12:08:53;26.30;;;20.30;;
438;SDS011;206;48.782;9.252;2023-03-03T12:11:33;35.45;;;24.60;;
438;SDS011;206;48.782;9.252;2023-03-03T12:14:09;29.73;;;22.73;;
438;SDS011;206;48.782;9.252;2023-03-03T12:22:34;32.07;;;23.30;;
438;SDS011;206;48.782;9.252;2023-03-03T12:38:48;28.30;;;19.80;;
438;SDS011;206;48.782;9.252;2023-03-03T12:41:36;29.37;;;21.80;;
438;SDS011;206;48.782;9.252;2023-03-03T12:44:14;27.70;;;20.87;;
438;SDS011;206;48.782;9.252;2023-03-03T12:49:34;27.97;;;21.10;;
438;SDS011;206;48.782;9.252;2023-03-03T12:52:19;31.60;;;22.43;;
438;SDS011;206;48.782;9.252;2023-03-03T12:58:07;32.93;;;20.83;;
438;SDS011;206;48.782;9.252;2023-03-03T13:06:36;32.60;;;20.87;;
438;SDS011;206;48.782;9.252;2023-03-03T13:19:53;28.13;;;21.30;;
438;SDS011;206;48.782;9.252;2023-03-03T13:27:35;31.07;;;21.30;;
438;SDS011;206;48.782;9.252;2023-03-03T13:30:14;25.47;;;20.37;;
438;SDS011;206;48.782;9.252;2023-03-03T13:33:01;32.23;;;25.63;;
438;SDS011;206;48.782;9.252;2023-03-03T13:35:36;27.77;;;20.17;;
438;SDS011;206;48.782;9.252;2023-03-03T13:38:10;27.73;;;20.60;;
438;SDS011;206;48.782;9.252;2023-03-03T13:40:45;25.40;;;19.93;;
438;SDS011;206;48.782;9.252;2023-03-03T13:46:17;22.30;;;18.47;;
438;SDS011;206;48.782;9.252;2023-03-03T13:51:47;28.23;;;21.20;;
438;SDS011;206;48.782;9.252;2023-03-03T13:57:17;28.20;;;20.27;;
438;SDS011;206;48.782;9.252;2023-03-03T14:13:43;30.23;;;21.33;;
438;SDS011;206;48.782;9.252;2023-03-03T14:16:21;27.67;;;20.20;;
438;SDS011;206;48.782;9.252;2023-03-03T14:19:10;29.80;;;20.50;;
438;SDS011;206;48.782;9.252;2023-03-03T14:21:46;26.00;;;22.00;;
438;SDS011;206;48.782;9.252;2023-03-03T14:24:20;28.43;;;21.87;;
438;SDS011;206;48.782;9.252;2023-03-03T14:26:53;29.47;;;21.83;;
438;SDS011;206;48.782;9.252;2023-03-03T14:31:52;29.43;;;20.47;;
438;SDS011;206;48.782;9.252;2023-03-03T14:36:47;30.37;;;23.60;;
438;SDS011;206;48.782;9.252;2023-03-03T14:42:00;28.20;;;21.30;;
438;SDS011;206;48.782;9.252;2023-03-03T14:44:37;33.93;;;23.73;;
438;SDS011;206;48.782;9.252;2023-03-03T14:47:19;27.60;;;20.77;;
438;SDS011;206;48.782;9.252;2023-03-03T14:49:47;27.83;;;19.37;;
438;SDS011;206;48.782;9.252;2023-03-03T14:54:41;25.70;;;20.43;;
438;SDS011;206;48.782;9.252;2023-03-03T15:02:34;31.93;;;21.23;;
438;SDS011;206;48.782;9.252;2023-03-03T15:05:29;27.97;;;22.63;;
438;SDS011;206;48.782;9.252;2023-03-03T15:07:58;31.60;;;22.10;;
438;SDS011;206;48.782;9.252;2023-03-03T15:10:35;30.20;;;20.50;;
438;SDS011;206;48.782;9.252;2023-03-03T15:13:11;29.60;;;21.67;;
438;SDS011;206;48.782;9.252;2023-03-03T15:21:25;29.03;;;21.50;;
438;SDS011;206;48.782;9.252;2023-03-03T15:24:12;32.43;;;21.17;;
438;SDS011;206;48.782;9.252;2023-03-03T15:27:06;30.17;;;23.10;;
438;SDS011;206;48.782;9.252;2023-03-03T15:37:48;30.10;;;23.17;;
438;SDS011;206;48.782;9.252;2023-03-03T15:48:59;29.60;;;21.50;;
438;SDS011;206;48.782;9.252;2023-03-03T15:51:45;30.27;;;23.40;;
438;SDS011;206;48.782;9.252;2023-03-03T15:56:52;34.50;;;23.43;;
438;SDS011;206;48.782;9.252;2023-03-03T16:04:35;28.60;;;20.97;;
438;SDS011;206;48.782;9.252;2023-03-03T16:18:58;33.47;;;20.93;;
438;SDS011;206;48.782;9.252;2023-03-03T16:24:55;31.20;;;23.10;;
438;SDS011;206;48.782;9.252;2023-03-03T16:27:49;34.83;;;22.93;;
438;SDS011;206;48.782;9.252;2023-03-03T16:30:26;36.30;;;22.70;;
438;SDS011;206;48.782;9.252;2023-03-03T16:35:48;30.63;;;21.47;;
438;SDS011;206;48.782;9.252;2023-03-03T16:39:20;29.30;;;20.30;;
438;SDS011;206;48.782;9.252;2023-03-03T16:46:44;34.27;;;23.20;;
438;SDS011;206;48.782;9.252;2023-03-03T16:52:18;29.47;;;19.93;;
438;SDS011;206;48.782;9.252;2023-03-03T16:54:58;32.60;;;23.33;;
438;SDS011;206;48.782;9.252;2023-03-03T16:57:33;36.73;;;21.10;;
438;SDS011;206;48.782;9.252;2023-03-03T17:00:23;36.43;;;24.50;;
438;SDS011;206;48.782;9.252;2023-03-03T17:10:54;32.20;;;22.80;;
438;SDS011;206;48.782;9.252;2023-03-03T17:46:54;34.47;;;23.90;;
438;SDS011;206;48.782;9.252;2023-03-03T17:54:46;39.20;;;24.77;;
438;SDS011;206;48.782;9.252;2023-03-03T18:00:02;35.97;;;24.90;;
438;SDS011;206;48.782;9.252;2023-03-03T18:05:26;36.70;;;23.27;;
438;SDS011;206;48.782;9.252;2023-03-03T18:08:05;35.93;;;22.27;;
438;SDS011;206;48.782;9.252;2023-03-03T18:13:26;30.27;;;21.87;;
438;SDS011;206;48.782;9.252;2023-03-03T18:24:35;33.43;;;24.40;;
438;SDS011;206;48.782;9.252;2023-03-03T18:30:41;31.17;;;24.07;;
438;SDS011;206;48.782;9.252;2023-03-03T18:40:59;36.87;;;24.33;;
438;SDS011;206;48.782;9.252;2023-03-03T18:48:45;39.40;;;25.97;;
438;SDS011;206;48.782;9.252;2023-03-03T18:54:57;45.00;;;25.90;;
438;SDS011;206;48.782;9.252;2023-03-03T19:02:38;40.33;;;29.13;;
438;SDS011;206;48.782;9.252;2023-03-03T19:04:54;41.23;;;26.90;;
438;SDS011;206;48.782;9.252;2023-03-03T19:12:58;37.30;;;26.63;;
438;SDS011;206;48.782;9.252;2023-03-03T19:17:58;32.40;;;26.37;;
438;SDS011;206;48.782;9.252;2023-03-03T19:20:25;38.67;;;27.07;;
438;SDS011;206;48.782;9.252;2023-03-03T19:23:15;43.10;;;26.27;;
438;SDS011;206;48.782;9.252;2023-03-03T19:25:43;39.90;;;26.90;;
438;SDS011;206;48.782;9.252;2023-03-03T19:39:56;41.23;;;26.13;;
438;SDS011;206;48.782;9.252;2023-03-03T19:42:40;38.50;;;26.03;;
438;SDS011;206;48.782;9.252;2023-03-03T19:45:36;39.63;;;25.40;;
438;SDS011;206;48.782;9.252;2023-03-03T19:48:09;36.50;;;25.70;;
438;SDS011;206;48.782;9.252;2023-03-03T19:50:45;43.17;;;24.40;;
438;SDS011;206;48.782;9.252;2023-03-03T19:58:45;35.50;;;24.90;;
438;SDS011;206;48.782;9.252;2023-03-03T20:04:25;44.87;;;27.13;;
438;SDS011;206;48.782;9.252;2023-03-03T20:06:55;37.07;;;26.07;;
438;SDS011;206;48.782;9.252;2023-03-03T20:09:48;44.03;;;26.97;;
438;SDS011;206;48.782;9.252;2023-03-03T20:12:45;39.80;;;25.30;;
438;SDS011;206;48.782;9.252;2023-03-03T20:15:24;34.13;;;23.87;;
438;SDS011;206;48.782;9.252;2023-03-03T20:18:05;40.33;;;26.90;;
438;SDS011;206;48.782;9.252;2023-03-03T20:20:55;35.93;;;25.10;;
438;SDS011;206;48.782;9.252;2023-03-03T20:24:09;40.23;;;26.30;;
438;SDS011;206;48.782;9.252;2023-03-03T20:32:29;36.17;;;25.83;;
438;SDS011;206;48.782;9.252;2023-03-03T20:35:18;39.03;;;24.13;;
438;SDS011;206;48.782;9.252;2023-03-03T20:48:39;35.13;;;24.30;;
438;SDS011;206;48.782;9.252;2023-03-03T20:51:33;39.80;;;26.03;;
438;SDS011;206;48.782;9.252;2023-03-03T20:54:16;39.43;;;26.70;;
438;SDS011;206;48.782;9.252;2023-03-03T20:59:39;44.40;;;27.40;;
438;SDS011;206;48.782;9.252;2023-03-03T21:02:41;38.67;;;25.77;;
438;SDS011;206;48.782;9.252;2023-03-03T21:05:24;33.40;;;24.60;;
438;SDS011;206;48.782;9.252;2023-03-03T21:07:51;39.37;;;25.80;;
438;SDS011;206;48.782;9.252;2023-03-03T21:10:31;37.00;;;23.97;;
438;SDS011;206;48.782;9.252;2023-03-03T21:15:54;37.60;;;23.77;;
438;SDS011;206;48.782;9.252;2023-03-03T21:18:24;38.83;;;25.83;;
438;SDS011;206;48.782;9.252;2023-03-03T21:20:50;38.20;;;25.30;;
438;SDS011;206;48.782;9.252;2023-03-03T21:23:16;42.20;;;25.97;;
438;SDS011;206;48.782;9.252;2023-03-03T21:25:44;40.00;;;26.13;;
438;SDS011;206;48.782;9.252;2023-03-03T21:36:22;35.73;;;24.20;;
438;SDS011;206;48.782;9.252;2023-03-03T21:42:09;37.83;;;24.43;;
438;SDS011;206;48.782;9.252;2023-03-03T21:44:49;40.90;;;25.70;;
438;SDS011;206;48.782;9.252;2023-03-03T21:47:16;39.77;;;24.73;;
438;SDS011;206;48.782;9.252;2023-03-03T21:49:47;39.17;;;24.30;;
438;SDS011;206;48.782;9.252;2023-03-03T21:52:15;40.17;;;25.90;;
438;SDS011;206;48.782;9.252;2023-03-03T21:54:42;42.90;;;24.37;;
438;SDS011;206;48.782;9.252;2023-03-03T21:57:09;45.70;;;25.27;;
438;SDS011;206;48.782;9.252;2023-03-03T21:59:35;33.73;;;24.70;;
438;SDS011;206;48.782;9.252;2023-03-03T22:02:01;35.93;;;24.47;;
438;SDS011;206;48.782;9.252;2023-03-03T22:04:27;39.80;;;22.90;;
438;SDS011;206;48.782;9.252;2023-03-03T22:06:53;33.63;;;22.20;;
438;SDS011;206;48.782;9.252;2023-03-03T22:09:19;36.20;;;24.10;;
438;SDS011;206;48.782;9.252;2023-03-03T22:11:45;38.50;;;22.80;;
438;SDS011;206;48.782;9.252;2023-03-03T22:14:11;36.47;;;22.30;;
438;SDS011;206;48.782;9.252;2023-03-03T22:16:36;31.67;;;22.50;;
438;SDS011;206;48.782;9.252;2023-03-03T22:19:02;37.87;;;22.60;;
438;SDS011;206;48.782;9.252;2023-03-03T22:21:29;34.10;;;23.30;;
438;SDS011;206;48.782;9.252;2023-03-03T22:23:55;40.20;;;23.37;;
438;SDS011;206;48.782;9.252;2023-03-03T22:26:21;33.83;;;22.60;;
438;SDS011;206;48.782;9.252;2023-03-03T22:28:47;31.77;;;22.60;;
438;SDS011;206;48.782;9.252;2023-03-03T22:31:13;34.40;;;23.80;;
438;SDS011;206;48.782;9.252;2023-03-03T22:33:43;33.93;;;21.80;;
438;SDS011;206;48.782;9.252;2023-03-03T22:36:09;30.70;;;21.73;;
438;SDS011;206;48.782;9.252;2023-03-03T22:38:35;33.37;;;21.33;;
438;SDS011;206;48.782;9.252;2023-03-03T22:41:01;30.43;;;21.20;;
438;SDS011;206;48.782;9.252;2023-03-03T22:43:27;35.47;;;21.83;;
438;SDS011;206;48.782;9.252;2023-03-03T22:45:54;33.63;;;22.90;;